LGKR/CFU METAR and TAF weather

Enter ICAO airport designator
Station Type Date Time Source
LGKR METAR 2021/04/13 20:50 UTC NOAA

LGKR 132050Z 16010KT 9999 SCT025 15/12 Q1017 NOSIG


Station Type Date Time Source
LGKR Decoded METAR 2021/04/13 20:50 UTC NOAA

Kerkyra Airport , Greece (LGKR) 39-37N 019-55E 4M
Apr 13, 2021 - 04:50 PM EDT / 2021.04.13 2050 UTC
Wind: from the SSE (160 degrees) at 12 MPH (10 KT):0
Visibility: greater than 7 mile(s):0
Sky conditions: partly cloudy
Temperature: 59 F (15 C)
Dew Point: 53 F (12 C)
Relative Humidity: 82%
Pressure (altimeter): 30.03 in. Hg (1017 hPa)
ob: LGKR 132050Z 16010KT 9999 SCT025 15/12 Q1017 NOSIG
cycle: 21

Station Type Date Time Source
LGKR TAF 2021/04/13 18:14 UTC NOAA

TAF LGKR 131700Z 1318/1418 14010KT 9999 FEW025 BKN080 PROB40
TEMPO 1318/1406 5000 RA FEW018TCU SCT020 BKN070 PROB30
TEMPO 1320/1403 4000 TSRA FEW018CB BKN020 BKN070
BECMG 1403/1405 33016KT

Example: see airport list